sensor_id;sensor_type;location;lat;lon;timestamp;temperature;humidity
19359;DHT22;9815;52.334;20.890;2023-04-28T00:00:53;2.20;99.90
19359;DHT22;9815;52.334;20.890;2023-04-28T00:03:21;2.10;99.90
19359;DHT22;9815;52.334;20.890;2023-04-28T00:05:51;2.00;99.90
19359;DHT22;9815;52.334;20.890;2023-04-28T00:08:20;2.00;99.90
19359;DHT22;9815;52.334;20.890;2023-04-28T00:10:49;1.90;99.90
19359;DHT22;9815;52.334;20.890;2023-04-28T00:13:17;1.90;99.90
19359;DHT22;9815;52.334;20.890;2023-04-28T00:15:45;1.90;99.90
19359;DHT22;9815;52.334;20.890;2023-04-28T00:18:15;1.90;99.90
19359;DHT22;9815;52.334;20.890;2023-04-28T00:20:43;1.80;99.90
19359;DHT22;9815;52.334;20.890;2023-04-28T00:23:11;1.80;99.90
19359;DHT22;9815;52.334;20.890;2023-04-28T00:25:39;1.80;99.90
19359;DHT22;9815;52.334;20.890;2023-04-28T00:28:08;1.80;99.90
19359;DHT22;9815;52.334;20.890;2023-04-28T00:30:37;1.80;99.90
19359;DHT22;9815;52.334;20.890;2023-04-28T00:33:05;1.70;99.90
19359;DHT22;9815;52.334;20.890;2023-04-28T00:35:35;1.60;99.90
19359;DHT22;9815;52.334;20.890;2023-04-28T00:38:03;1.60;99.90
19359;DHT22;9815;52.334;20.890;2023-04-28T00:40:34;1.50;99.90
19359;DHT22;9815;52.334;20.890;2023-04-28T00:43:03;1.50;99.90
19359;DHT22;9815;52.334;20.890;2023-04-28T00:45:31;1.50;99.90
19359;DHT22;9815;52.334;20.890;2023-04-28T00:47:59;1.50;99.90
19359;DHT22;9815;52.334;20.890;2023-04-28T00:50:28;1.40;99.90
19359;DHT22;9815;52.334;20.890;2023-04-28T00:52:57;1.40;99.90
19359;DHT22;9815;52.334;20.890;2023-04-28T00:55:27;1.30;99.90
19359;DHT22;9815;52.334;20.890;2023-04-28T00:57:58;1.30;99.90
19359;DHT22;9815;52.334;20.890;2023-04-28T01:00:26;1.20;99.90
19359;DHT22;9815;52.334;20.890;2023-04-28T01:02:54;1.30;99.90
19359;DHT22;9815;52.334;20.890;2023-04-28T01:05:25;1.30;99.90
19359;DHT22;9815;52.334;20.890;2023-04-28T01:07:53;1.30;99.90
19359;DHT22;9815;52.334;20.890;2023-04-28T01:10:23;1.20;99.90
19359;DHT22;9815;52.334;20.890;2023-04-28T01:12:52;1.30;99.90
19359;DHT22;9815;52.334;20.890;2023-04-28T01:15:20;1.30;99.90
19359;DHT22;9815;52.334;20.890;2023-04-28T01:17:51;1.20;99.90
19359;DHT22;9815;52.334;20.890;2023-04-28T01:20:20;1.20;99.90
19359;DHT22;9815;52.334;20.890;2023-04-28T01:22:48;1.20;99.90
19359;DHT22;9815;52.334;20.890;2023-04-28T01:25:21;1.20;99.90
19359;DHT22;9815;52.334;20.890;2023-04-28T01:27:49;1.20;99.90
19359;DHT22;9815;52.334;20.890;2023-04-28T01:30:18;1.20;99.90
19359;DHT22;9815;52.334;20.890;2023-04-28T01:32:47;1.20;99.90
19359;DHT22;9815;52.334;20.890;2023-04-28T01:35:15;1.10;99.90
19359;DHT22;9815;52.334;20.890;2023-04-28T01:37:43;1.10;99.90
19359;DHT22;9815;52.334;20.890;2023-04-28T01:40:12;1.10;99.90
19359;DHT22;9815;52.334;20.890;2023-04-28T01:42:41;1.10;99.90
19359;DHT22;9815;52.334;20.890;2023-04-28T01:45:10;1.10;99.90
19359;DHT22;9815;52.334;20.890;2023-04-28T01:47:38;1.00;99.90
19359;DHT22;9815;52.334;20.890;2023-04-28T01:50:07;1.00;99.90
19359;DHT22;9815;52.334;20.890;2023-04-28T01:52:35;1.00;99.90
19359;DHT22;9815;52.334;20.890;2023-04-28T01:55:04;1.00;99.90
19359;DHT22;9815;52.334;20.890;2023-04-28T01:57:32;1.00;99.90
19359;DHT22;9815;52.334;20.890;2023-04-28T02:00:04;1.00;99.90
19359;DHT22;9815;52.334;20.890;2023-04-28T02:02:36;0.90;99.90
19359;DHT22;9815;52.334;20.890;2023-04-28T02:05:05;0.90;99.90
19359;DHT22;9815;52.334;20.890;2023-04-28T02:07:33;0.80;99.90
19359;DHT22;9815;52.334;20.890;2023-04-28T02:10:03;0.80;99.90
19359;DHT22;9815;52.334;20.890;2023-04-28T02:12:31;0.80;99.90
19359;DHT22;9815;52.334;20.890;2023-04-28T02:14:59;0.70;99.90
19359;DHT22;9815;52.334;20.890;2023-04-28T02:17:30;0.80;99.90
19359;DHT22;9815;52.334;20.890;2023-04-28T02:19:58;0.80;99.90
19359;DHT22;9815;52.334;20.890;2023-04-28T02:22:26;0.80;99.90
19359;DHT22;9815;52.334;20.890;2023-04-28T02:24:54;0.80;99.90
19359;DHT22;9815;52.334;20.890;2023-04-28T02:27:22;0.80;99.90
19359;DHT22;9815;52.334;20.890;2023-04-28T02:29:50;0.80;99.90
19359;DHT22;9815;52.334;20.890;2023-04-28T02:32:18;0.80;99.90
19359;DHT22;9815;52.334;20.890;2023-04-28T02:34:53;0.70;99.90
19359;DHT22;9815;52.334;20.890;2023-04-28T02:37:22;0.60;99.90
19359;DHT22;9815;52.334;20.890;2023-04-28T02:39:50;0.60;99.90
19359;DHT22;9815;52.334;20.890;2023-04-28T02:42:20;0.60;99.90
19359;DHT22;9815;52.334;20.890;2023-04-28T02:44:48;0.50;99.90
19359;DHT22;9815;52.334;20.890;2023-04-28T02:47:16;0.50;99.90
19359;DHT22;9815;52.334;20.890;2023-04-28T02:49:44;0.50;99.90
19359;DHT22;9815;52.334;20.890;2023-04-28T02:52:14;0.40;99.90
19359;DHT22;9815;52.334;20.890;2023-04-28T02:54:42;0.40;99.90
19359;DHT22;9815;52.334;20.890;2023-04-28T02:57:15;0.40;99.90
19359;DHT22;9815;52.334;20.890;2023-04-28T02:59:43;0.40;99.90
19359;DHT22;9815;52.334;20.890;2023-04-28T03:02:12;0.40;99.90
19359;DHT22;9815;52.334;20.890;2023-04-28T03:04:40;0.40;99.90
19359;DHT22;9815;52.334;20.890;2023-04-28T03:07:08;0.50;99.90
19359;DHT22;9815;52.334;20.890;2023-04-28T03:09:38;0.40;99.90
19359;DHT22;9815;52.334;20.890;2023-04-28T03:12:08;0.40;99.90
19359;DHT22;9815;52.334;20.890;2023-04-28T03:14:36;0.40;99.90
19359;DHT22;9815;52.334;20.890;2023-04-28T03:17:04;0.50;99.90
19359;DHT22;9815;52.334;20.890;2023-04-28T03:19:32;0.50;99.90
19359;DHT22;9815;52.334;20.890;2023-04-28T03:22:00;0.60;99.90
19359;DHT22;9815;52.334;20.890;2023-04-28T03:24:30;0.60;99.90
19359;DHT22;9815;52.334;20.890;2023-04-28T03:26:59;0.60;99.90
19359;DHT22;9815;52.334;20.890;2023-04-28T03:29:29;0.60;99.90
19359;DHT22;9815;52.334;20.890;2023-04-28T03:31:57;0.50;99.90
19359;DHT22;9815;52.334;20.890;2023-04-28T03:34:26;0.50;99.90
19359;DHT22;9815;52.334;20.890;2023-04-28T03:36:54;0.60;99.90
19359;DHT22;9815;52.334;20.890;2023-04-28T03:39:27;0.70;99.90
19359;DHT22;9815;52.334;20.890;2023-04-28T03:41:55;0.70;99.90
19359;DHT22;9815;52.334;20.890;2023-04-28T03:44:51;0.70;99.90
19359;DHT22;9815;52.334;20.890;2023-04-28T03:47:19;0.80;99.90
19359;DHT22;9815;52.334;20.890;2023-04-28T03:49:47;1.00;99.90
19359;DHT22;9815;52.334;20.890;2023-04-28T03:52:16;1.00;99.90
19359;DHT22;9815;52.334;20.890;2023-04-28T03:54:44;1.10;99.90
19359;DHT22;9815;52.334;20.890;2023-04-28T03:57:12;1.20;99.90
19359;DHT22;9815;52.334;20.890;2023-04-28T03:59:40;1.30;99.90
19359;DHT22;9815;52.334;20.890;2023-04-28T04:02:11;1.30;99.90
19359;DHT22;9815;52.334;20.890;2023-04-28T04:04:39;1.40;99.90
19359;DHT22;9815;52.334;20.890;2023-04-28T04:07:07;1.30;99.90
19359;DHT22;9815;52.334;20.890;2023-04-28T04:09:36;1.30;99.90
19359;DHT22;9815;52.334;20.890;2023-04-28T04:12:05;1.40;99.90
19359;DHT22;9815;52.334;20.890;2023-04-28T04:14:33;1.40;99.90
19359;DHT22;9815;52.334;20.890;2023-04-28T04:17:01;1.40;99.90
19359;DHT22;9815;52.334;20.890;2023-04-28T04:19:31;1.40;99.90
19359;DHT22;9815;52.334;20.890;2023-04-28T04:21:59;1.50;99.90
19359;DHT22;9815;52.334;20.890;2023-04-28T04:24:27;1.50;99.90
19359;DHT22;9815;52.334;20.890;2023-04-28T04:26:56;1.50;99.90
19359;DHT22;9815;52.334;20.890;2023-04-28T04:29:34;1.50;99.90
19359;DHT22;9815;52.334;20.890;2023-04-28T04:32:11;1.60;99.90
19359;DHT22;9815;52.334;20.890;2023-04-28T04:34:43;1.70;99.90
19359;DHT22;9815;52.334;20.890;2023-04-28T04:37:20;1.70;99.90
19359;DHT22;9815;52.334;20.890;2023-04-28T04:40:00;1.80;99.90
19359;DHT22;9815;52.334;20.890;2023-04-28T04:42:35;2.00;99.90
19359;DHT22;9815;52.334;20.890;2023-04-28T04:45:10;2.20;99.90
19359;DHT22;9815;52.334;20.890;2023-04-28T04:47:44;2.40;99.90
19359;DHT22;9815;52.334;20.890;2023-04-28T04:50:17;2.60;99.90
19359;DHT22;9815;52.334;20.890;2023-04-28T04:52:53;2.80;99.90
19359;DHT22;9815;52.334;20.890;2023-04-28T04:55:26;3.10;99.90
19359;DHT22;9815;52.334;20.890;2023-04-28T04:57:57;3.30;99.90
19359;DHT22;9815;52.334;20.890;2023-04-28T05:00:56;3.40;99.90
19359;DHT22;9815;52.334;20.890;2023-04-28T05:03:25;3.60;99.90
19359;DHT22;9815;52.334;20.890;2023-04-28T05:06:02;3.80;99.90
19359;DHT22;9815;52.334;20.890;2023-04-28T05:08:44;3.90;99.90
19359;DHT22;9815;52.334;20.890;2023-04-28T05:11:18;4.00;99.90
19359;DHT22;9815;52.334;20.890;2023-04-28T05:13:48;4.10;99.90
19359;DHT22;9815;52.334;20.890;2023-04-28T05:16:21;4.20;99.90
19359;DHT22;9815;52.334;20.890;2023-04-28T05:19:16;4.40;99.90
19359;DHT22;9815;52.334;20.890;2023-04-28T05:21:51;4.40;99.90
19359;DHT22;9815;52.334;20.890;2023-04-28T05:24:23;4.60;99.90
19359;DHT22;9815;52.334;20.890;2023-04-28T05:26:52;4.70;99.90
19359;DHT22;9815;52.334;20.890;2023-04-28T05:29:22;4.80;99.90
19359;DHT22;9815;52.334;20.890;2023-04-28T05:31:50;4.90;99.90
19359;DHT22;9815;52.334;20.890;2023-04-28T05:34:21;5.00;99.90
19359;DHT22;9815;52.334;20.890;2023-04-28T05:36:50;5.00;99.90
19359;DHT22;9815;52.334;20.890;2023-04-28T05:39:23;5.10;99.90
19359;DHT22;9815;52.334;20.890;2023-04-28T05:41:53;5.20;99.90
19359;DHT22;9815;52.334;20.890;2023-04-28T05:44:22;5.40;99.90
19359;DHT22;9815;52.334;20.890;2023-04-28T05:46:50;5.50;99.90
19359;DHT22;9815;52.334;20.890;2023-04-28T05:49:23;5.60;99.90
19359;DHT22;9815;52.334;20.890;2023-04-28T05:51:53;5.60;99.90
19359;DHT22;9815;52.334;20.890;2023-04-28T05:54:21;5.70;99.90
19359;DHT22;9815;52.334;20.890;2023-04-28T05:56:52;5.80;99.90
19359;DHT22;9815;52.334;20.890;2023-04-28T05:59:20;5.90;99.90
19359;DHT22;9815;52.334;20.890;2023-04-28T06:01:49;6.00;99.90
19359;DHT22;9815;52.334;20.890;2023-04-28T06:04:17;6.10;99.90
19359;DHT22;9815;52.334;20.890;2023-04-28T06:06:48;6.20;99.90
19359;DHT22;9815;52.334;20.890;2023-04-28T06:09:17;6.20;99.90
19359;DHT22;9815;52.334;20.890;2023-04-28T06:11:46;6.40;99.90
19359;DHT22;9815;52.334;20.890;2023-04-28T06:14:14;6.40;99.90
19359;DHT22;9815;52.334;20.890;2023-04-28T06:16:42;6.50;99.90
19359;DHT22;9815;52.334;20.890;2023-04-28T06:19:19;6.70;99.90
19359;DHT22;9815;52.334;20.890;2023-04-28T06:21:47;6.80;99.90
19359;DHT22;9815;52.334;20.890;2023-04-28T06:24:16;6.90;99.90
19359;DHT22;9815;52.334;20.890;2023-04-28T06:26:45;7.00;99.90
19359;DHT22;9815;52.334;20.890;2023-04-28T06:29:13;7.10;99.90
19359;DHT22;9815;52.334;20.890;2023-04-28T06:31:41;7.20;99.90
19359;DHT22;9815;52.334;20.890;2023-04-28T06:34:10;7.40;99.90
19359;DHT22;9815;52.334;20.890;2023-04-28T06:36:39;7.50;99.90
19359;DHT22;9815;52.334;20.890;2023-04-28T06:39:07;7.70;99.90
19359;DHT22;9815;52.334;20.890;2023-04-28T06:41:35;7.80;99.90
19359;DHT22;9815;52.334;20.890;2023-04-28T06:44:04;8.00;98.40
19359;DHT22;9815;52.334;20.890;2023-04-28T06:46:33;8.10;86.60
19359;DHT22;9815;52.334;20.890;2023-04-28T06:49:03;8.20;74.50
19359;DHT22;9815;52.334;20.890;2023-04-28T06:51:31;8.40;64.20
19359;DHT22;9815;52.334;20.890;2023-04-28T06:54:01;8.50;54.10
19359;DHT22;9815;52.334;20.890;2023-04-28T06:56:29;8.70;52.60
19359;DHT22;9815;52.334;20.890;2023-04-28T06:58:57;8.80;49.70
19359;DHT22;9815;52.334;20.890;2023-04-28T07:01:26;8.90;53.00
19359;DHT22;9815;52.334;20.890;2023-04-28T07:03:54;9.00;51.50
19359;DHT22;9815;52.334;20.890;2023-04-28T07:06:22;9.20;54.80
19359;DHT22;9815;52.334;20.890;2023-04-28T07:08:50;9.30;49.10
19359;DHT22;9815;52.334;20.890;2023-04-28T07:11:20;9.30;46.10
19359;DHT22;9815;52.334;20.890;2023-04-28T07:13:49;9.50;46.40
19359;DHT22;9815;52.334;20.890;2023-04-28T07:16:17;9.60;45.80
19359;DHT22;9815;52.334;20.890;2023-04-28T07:18:47;9.60;43.80
19359;DHT22;9815;52.334;20.890;2023-04-28T07:21:15;9.80;44.70
19359;DHT22;9815;52.334;20.890;2023-04-28T07:23:43;9.90;42.10
19359;DHT22;9815;52.334;20.890;2023-04-28T07:26:11;9.90;41.40
19359;DHT22;9815;52.334;20.890;2023-04-28T07:28:44;10.10;42.00
19359;DHT22;9815;52.334;20.890;2023-04-28T07:31:12;10.20;39.90
19359;DHT22;9815;52.334;20.890;2023-04-28T07:33:40;10.40;40.90
19359;DHT22;9815;52.334;20.890;2023-04-28T07:36:08;10.80;37.20
19359;DHT22;9815;52.334;20.890;2023-04-28T07:38:36;11.20;37.00
19359;DHT22;9815;52.334;20.890;2023-04-28T07:41:06;11.50;35.50
19359;DHT22;9815;52.334;20.890;2023-04-28T07:43:37;11.50;34.60
19359;DHT22;9815;52.334;20.890;2023-04-28T07:46:07;11.30;35.00
19359;DHT22;9815;52.334;20.890;2023-04-28T07:48:35;11.10;33.00
19359;DHT22;9815;52.334;20.890;2023-04-28T07:51:04;10.90;33.50
19359;DHT22;9815;52.334;20.890;2023-04-28T07:53:32;11.60;34.20
19359;DHT22;9815;52.334;20.890;2023-04-28T07:56:01;12.40;31.10
19359;DHT22;9815;52.334;20.890;2023-04-28T07:58:29;12.60;28.00
19359;DHT22;9815;52.334;20.890;2023-04-28T08:00:58;12.50;28.50
19359;DHT22;9815;52.334;20.890;2023-04-28T08:03:27;12.40;28.90
19359;DHT22;9815;52.334;20.890;2023-04-28T08:05:55;12.70;27.60
19359;DHT22;9815;52.334;20.890;2023-04-28T08:08:24;13.20;27.80
19359;DHT22;9815;52.334;20.890;2023-04-28T08:10:52;13.20;25.50
19359;DHT22;9815;52.334;20.890;2023-04-28T08:13:20;13.20;25.90
19359;DHT22;9815;52.334;20.890;2023-04-28T08:15:48;13.20;26.40
19359;DHT22;9815;52.334;20.890;2023-04-28T08:18:17;13.10;26.10
19359;DHT22;9815;52.334;20.890;2023-04-28T08:20:46;12.90;26.60
19359;DHT22;9815;52.334;20.890;2023-04-28T08:23:14;12.60;28.40
19359;DHT22;9815;52.334;20.890;2023-04-28T08:25:42;12.40;26.80
19359;DHT22;9815;52.334;20.890;2023-04-28T08:28:10;12.00;27.40
19359;DHT22;9815;52.334;20.890;2023-04-28T08:30:38;12.10;26.40
19359;DHT22;9815;52.334;20.890;2023-04-28T08:33:06;12.60;26.20
19359;DHT22;9815;52.334;20.890;2023-04-28T08:35:35;13.20;23.90
19359;DHT22;9815;52.334;20.890;2023-04-28T08:38:05;13.70;24.30
19359;DHT22;9815;52.334;20.890;2023-04-28T08:40:34;14.40;24.80
19359;DHT22;9815;52.334;20.890;2023-04-28T08:43:02;15.10;24.30
19359;DHT22;9815;52.334;20.890;2023-04-28T08:45:39;15.40;21.20
19359;DHT22;9815;52.334;20.890;2023-04-28T08:48:13;15.50;21.00
19359;DHT22;9815;52.334;20.890;2023-04-28T08:50:48;15.60;21.40
19359;DHT22;9815;52.334;20.890;2023-04-28T08:53:21;16.00;19.60
19359;DHT22;9815;52.334;20.890;2023-04-28T08:55:54;16.30;18.20
19359;DHT22;9815;52.334;20.890;2023-04-28T08:58:22;16.50;16.90
19359;DHT22;9815;52.334;20.890;2023-04-28T09:00:51;16.10;18.30
19359;DHT22;9815;52.334;20.890;2023-04-28T09:03:20;15.30;17.90
19359;DHT22;9815;52.334;20.890;2023-04-28T09:05:49;15.20;19.90
19359;DHT22;9815;52.334;20.890;2023-04-28T09:08:17;15.30;20.30
19359;DHT22;9815;52.334;20.890;2023-04-28T09:10:46;16.10;19.90
19359;DHT22;9815;52.334;20.890;2023-04-28T09:13:23;17.00;19.60
19359;DHT22;9815;52.334;20.890;2023-04-28T09:15:58;16.90;17.70
19359;DHT22;9815;52.334;20.890;2023-04-28T09:18:27;17.60;15.90
19359;DHT22;9815;52.334;20.890;2023-04-28T09:21:02;17.60;15.30
19359;DHT22;9815;52.334;20.890;2023-04-28T09:23:31;16.80;15.30
19359;DHT22;9815;52.334;20.890;2023-04-28T09:26:03;17.00;16.10
19359;DHT22;9815;52.334;20.890;2023-04-28T09:28:33;17.40;16.40
19359;DHT22;9815;52.334;20.890;2023-04-28T09:31:02;17.80;16.10
19359;DHT22;9815;52.334;20.890;2023-04-28T09:33:30;18.00;15.40
19359;DHT22;9815;52.334;20.890;2023-04-28T09:35:58;17.70;15.50
19359;DHT22;9815;52.334;20.890;2023-04-28T09:38:26;18.10;15.90
19359;DHT22;9815;52.334;20.890;2023-04-28T09:40:56;18.00;16.20
19359;DHT22;9815;52.334;20.890;2023-04-28T09:43:28;17.90;16.10
19359;DHT22;9815;52.334;20.890;2023-04-28T09:45:59;17.60;16.00
19359;DHT22;9815;52.334;20.890;2023-04-28T09:48:29;17.30;15.90
19359;DHT22;9815;52.334;20.890;2023-04-28T09:50:58;17.10;16.60
19359;DHT22;9815;52.334;20.890;2023-04-28T09:53:27;16.40;16.80
19359;DHT22;9815;52.334;20.890;2023-04-28T09:55:56;15.80;18.70
19359;DHT22;9815;52.334;20.890;2023-04-28T09:58:27;15.10;18.50
19359;DHT22;9815;52.334;20.890;2023-04-28T10:00:56;14.40;20.50
19359;DHT22;9815;52.334;20.890;2023-04-28T10:03:27;13.90;20.60
19359;DHT22;9815;52.334;20.890;2023-04-28T10:05:57;13.40;21.20
19359;DHT22;9815;52.334;20.890;2023-04-28T10:08:26;13.40;20.90
19359;DHT22;9815;52.334;20.890;2023-04-28T10:10:54;14.20;20.50
19359;DHT22;9815;52.334;20.890;2023-04-28T10:13:24;15.20;19.60
19359;DHT22;9815;52.334;20.890;2023-04-28T10:15:53;15.80;19.60
19359;DHT22;9815;52.334;20.890;2023-04-28T10:18:24;16.50;19.20
19359;DHT22;9815;52.334;20.890;2023-04-28T10:20:56;17.00;18.60
19359;DHT22;9815;52.334;20.890;2023-04-28T10:23:51;17.40;17.60
19359;DHT22;9815;52.334;20.890;2023-04-28T10:29:22;18.20;17.10
19359;DHT22;9815;52.334;20.890;2023-04-28T10:32:19;18.80;16.80
19359;DHT22;9815;52.334;20.890;2023-04-28T10:34:48;18.70;16.10
19359;DHT22;9815;52.334;20.890;2023-04-28T10:37:17;18.90;16.30
19359;DHT22;9815;52.334;20.890;2023-04-28T10:42:53;18.60;15.30
19359;DHT22;9815;52.334;20.890;2023-04-28T10:46:00;18.70;15.90
19359;DHT22;9815;52.334;20.890;2023-04-28T10:48:52;17.60;15.60
19359;DHT22;9815;52.334;20.890;2023-04-28T10:51:28;16.50;17.80
19359;DHT22;9815;52.334;20.890;2023-04-28T10:54:17;15.70;18.50
19359;DHT22;9815;52.334;20.890;2023-04-28T10:57:14;15.10;18.70
19359;DHT22;9815;52.334;20.890;2023-04-28T10:59:43;15.40;18.30
19359;DHT22;9815;52.334;20.890;2023-04-28T11:05:18;16.60;18.10
19359;DHT22;9815;52.334;20.890;2023-04-28T11:11:16;16.90;18.60
19359;DHT22;9815;52.334;20.890;2023-04-28T11:13:45;17.20;19.00
19359;DHT22;9815;52.334;20.890;2023-04-28T11:16:14;17.90;17.50
19359;DHT22;9815;52.334;20.890;2023-04-28T11:18:55;17.90;17.50
19359;DHT22;9815;52.334;20.890;2023-04-28T11:21:28;17.40;18.40
19359;DHT22;9815;52.334;20.890;2023-04-28T11:23:57;16.20;19.10
19359;DHT22;9815;52.334;20.890;2023-04-28T11:26:26;16.60;18.00
19359;DHT22;9815;52.334;20.890;2023-04-28T11:28:56;16.50;17.50
19359;DHT22;9815;52.334;20.890;2023-04-28T11:31:25;15.90;17.60
19359;DHT22;9815;52.334;20.890;2023-04-28T11:33:58;15.70;18.40
19359;DHT22;9815;52.334;20.890;2023-04-28T11:36:30;15.40;18.70
19359;DHT22;9815;52.334;20.890;2023-04-28T11:39:06;15.00;20.40
19359;DHT22;9815;52.334;20.890;2023-04-28T11:41:34;14.70;21.10
19359;DHT22;9815;52.334;20.890;2023-04-28T11:44:10;14.40;20.20
19359;DHT22;9815;52.334;20.890;2023-04-28T11:46:44;14.40;20.60
19359;DHT22;9815;52.334;20.890;2023-04-28T11:49:12;14.90;20.90
19359;DHT22;9815;52.334;20.890;2023-04-28T11:51:42;15.90;18.60
19359;DHT22;9815;52.334;20.890;2023-04-28T11:54:12;16.70;18.20
19359;DHT22;9815;52.334;20.890;2023-04-28T11:56:41;17.50;17.60
19359;DHT22;9815;52.334;20.890;2023-04-28T11:59:11;18.10;17.00
19359;DHT22;9815;52.334;20.890;2023-04-28T12:01:47;18.20;15.70
19359;DHT22;9815;52.334;20.890;2023-04-28T12:04:26;18.40;15.70
19359;DHT22;9815;52.334;20.890;2023-04-28T12:07:01;19.00;14.60
19359;DHT22;9815;52.334;20.890;2023-04-28T12:09:31;18.50;15.80
19359;DHT22;9815;52.334;20.890;2023-04-28T12:12:00;18.00;16.30
19359;DHT22;9815;52.334;20.890;2023-04-28T12:14:31;17.70;17.00
19359;DHT22;9815;52.334;20.890;2023-04-28T12:17:01;18.00;16.10
19359;DHT22;9815;52.334;20.890;2023-04-28T12:19:31;18.50;16.60
19359;DHT22;9815;52.334;20.890;2023-04-28T12:22:11;18.70;15.20
19359;DHT22;9815;52.334;20.890;2023-04-28T12:24:43;18.80;14.70
19359;DHT22;9815;52.334;20.890;2023-04-28T12:27:16;19.10;14.60
19359;DHT22;9815;52.334;20.890;2023-04-28T12:29:46;19.20;15.40
19359;DHT22;9815;52.334;20.890;2023-04-28T12:32:14;18.60;16.30
19359;DHT22;9815;52.334;20.890;2023-04-28T12:34:44;18.00;15.70
19359;DHT22;9815;52.334;20.890;2023-04-28T12:37:14;18.00;16.60
19359;DHT22;9815;52.334;20.890;2023-04-28T12:39:42;18.30;16.60
19359;DHT22;9815;52.334;20.890;2023-04-28T12:42:11;18.00;17.60
19359;DHT22;9815;52.334;20.890;2023-04-28T12:44:39;17.10;17.20
19359;DHT22;9815;52.334;20.890;2023-04-28T12:47:08;16.30;17.60
19359;DHT22;9815;52.334;20.890;2023-04-28T12:49:37;15.80;19.00
19359;DHT22;9815;52.334;20.890;2023-04-28T12:52:05;15.70;20.60
19359;DHT22;9815;52.334;20.890;2023-04-28T12:54:35;16.20;19.70
19359;DHT22;9815;52.334;20.890;2023-04-28T12:57:03;16.80;17.90
19359;DHT22;9815;52.334;20.890;2023-04-28T12:59:32;17.40;18.40
19359;DHT22;9815;52.334;20.890;2023-04-28T13:02:00;18.00;16.20
19359;DHT22;9815;52.334;20.890;2023-04-28T13:04:28;18.50;15.80
19359;DHT22;9815;52.334;20.890;2023-04-28T13:06:57;18.80;16.10
19359;DHT22;9815;52.334;20.890;2023-04-28T13:09:26;18.70;16.00
19359;DHT22;9815;52.334;20.890;2023-04-28T13:11:55;18.50;15.40
19359;DHT22;9815;52.334;20.890;2023-04-28T13:14:25;17.80;17.30
19359;DHT22;9815;52.334;20.890;2023-04-28T13:16:53;17.40;16.40
19359;DHT22;9815;52.334;20.890;2023-04-28T13:19:21;16.50;17.20
19359;DHT22;9815;52.334;20.890;2023-04-28T13:21:49;16.30;18.20
19359;DHT22;9815;52.334;20.890;2023-04-28T13:24:18;16.20;18.80
19359;DHT22;9815;52.334;20.890;2023-04-28T13:26:46;16.60;17.70
19359;DHT22;9815;52.334;20.890;2023-04-28T13:29:15;17.20;18.60
19359;DHT22;9815;52.334;20.890;2023-04-28T13:31:43;17.60;17.60
19359;DHT22;9815;52.334;20.890;2023-04-28T13:34:12;18.00;17.50
19359;DHT22;9815;52.334;20.890;2023-04-28T13:36:42;18.20;16.40
19359;DHT22;9815;52.334;20.890;2023-04-28T13:39:10;18.20;16.80
19359;DHT22;9815;52.334;20.890;2023-04-28T13:41:40;18.60;16.70
19359;DHT22;9815;52.334;20.890;2023-04-28T13:44:08;18.60;16.40
19359;DHT22;9815;52.334;20.890;2023-04-28T13:46:38;18.60;16.40
19359;DHT22;9815;52.334;20.890;2023-04-28T13:49:08;17.70;17.80
19359;DHT22;9815;52.334;20.890;2023-04-28T13:51:36;17.10;17.60
19359;DHT22;9815;52.334;20.890;2023-04-28T13:54:04;16.20;18.10
19359;DHT22;9815;52.334;20.890;2023-04-28T13:56:34;15.80;19.90
19359;DHT22;9815;52.334;20.890;2023-04-28T13:59:03;15.80;20.20
19359;DHT22;9815;52.334;20.890;2023-04-28T14:01:31;15.70;20.20
19359;DHT22;9815;52.334;20.890;2023-04-28T14:04:01;15.50;18.90
19359;DHT22;9815;52.334;20.890;2023-04-28T14:06:29;15.50;20.50
19359;DHT22;9815;52.334;20.890;2023-04-28T14:09:00;15.50;20.60
19359;DHT22;9815;52.334;20.890;2023-04-28T14:11:29;15.30;21.30
19359;DHT22;9815;52.334;20.890;2023-04-28T14:13:57;15.20;21.20
19359;DHT22;9815;52.334;20.890;2023-04-28T14:16:25;15.00;22.00
19359;DHT22;9815;52.334;20.890;2023-04-28T14:18:53;14.90;21.60
19359;DHT22;9815;52.334;20.890;2023-04-28T14:21:23;15.40;22.30
19359;DHT22;9815;52.334;20.890;2023-04-28T14:23:51;16.00;20.00
19359;DHT22;9815;52.334;20.890;2023-04-28T14:26:26;16.70;18.90
19359;DHT22;9815;52.334;20.890;2023-04-28T14:29:07;16.90;19.20
19359;DHT22;9815;52.334;20.890;2023-04-28T14:31:38;16.80;20.30
19359;DHT22;9815;52.334;20.890;2023-04-28T14:34:07;16.80;19.30
19359;DHT22;9815;52.334;20.890;2023-04-28T14:36:36;16.90;19.30
19359;DHT22;9815;52.334;20.890;2023-04-28T14:39:05;17.00;20.00
19359;DHT22;9815;52.334;20.890;2023-04-28T14:41:33;17.20;18.90
19359;DHT22;9815;52.334;20.890;2023-04-28T14:44:01;17.10;19.40
19359;DHT22;9815;52.334;20.890;2023-04-28T14:46:29;16.70;19.70
19359;DHT22;9815;52.334;20.890;2023-04-28T14:48:57;16.90;19.60
19359;DHT22;9815;52.334;20.890;2023-04-28T14:51:25;16.70;20.60
19359;DHT22;9815;52.334;20.890;2023-04-28T14:53:54;16.70;20.20
19359;DHT22;9815;52.334;20.890;2023-04-28T14:56:23;16.80;20.00
19359;DHT22;9815;52.334;20.890;2023-04-28T14:58:51;17.00;19.90
19359;DHT22;9815;52.334;20.890;2023-04-28T15:01:19;17.00;18.90
19359;DHT22;9815;52.334;20.890;2023-04-28T15:03:47;17.20;18.10
19359;DHT22;9815;52.334;20.890;2023-04-28T15:06:16;17.40;19.10
19359;DHT22;9815;52.334;20.890;2023-04-28T15:08:45;16.70;20.30
19359;DHT22;9815;52.334;20.890;2023-04-28T15:11:14;16.10;20.70
19359;DHT22;9815;52.334;20.890;2023-04-28T15:13:42;16.10;20.90
19359;DHT22;9815;52.334;20.890;2023-04-28T15:16:10;16.20;21.50
19359;DHT22;9815;52.334;20.890;2023-04-28T15:18:41;16.60;20.00
19359;DHT22;9815;52.334;20.890;2023-04-28T15:21:09;17.10;20.40
19359;DHT22;9815;52.334;20.890;2023-04-28T15:23:38;17.30;19.40
19359;DHT22;9815;52.334;20.890;2023-04-28T15:26:06;17.40;19.70
19359;DHT22;9815;52.334;20.890;2023-04-28T15:28:37;17.50;20.20
19359;DHT22;9815;52.334;20.890;2023-04-28T15:31:05;17.70;19.50
19359;DHT22;9815;52.334;20.890;2023-04-28T15:33:34;17.60;19.90
19359;DHT22;9815;52.334;20.890;2023-04-28T15:36:02;17.40;19.20
19359;DHT22;9815;52.334;20.890;2023-04-28T15:38:30;17.40;20.20
19359;DHT22;9815;52.334;20.890;2023-04-28T15:40:59;17.40;19.90
19359;DHT22;9815;52.334;20.890;2023-04-28T15:43:28;17.50;19.50
19359;DHT22;9815;52.334;20.890;2023-04-28T15:45:58;17.80;18.60
19359;DHT22;9815;52.334;20.890;2023-04-28T15:48:26;17.70;19.40
19359;DHT22;9815;52.334;20.890;2023-04-28T15:50:55;17.70;19.00
19359;DHT22;9815;52.334;20.890;2023-04-28T15:53:23;17.30;18.30
19359;DHT22;9815;52.334;20.890;2023-04-28T15:55:51;17.20;20.30
19359;DHT22;9815;52.334;20.890;2023-04-28T15:58:19;17.10;19.10
19359;DHT22;9815;52.334;20.890;2023-04-28T16:00:47;16.80;20.40
19359;DHT22;9815;52.334;20.890;2023-04-28T16:03:17;16.40;20.60
19359;DHT22;9815;52.334;20.890;2023-04-28T16:05:45;16.30;21.20
19359;DHT22;9815;52.334;20.890;2023-04-28T16:08:13;16.10;21.30